This is the latest recevied weather packets stored in our database for station/object M0HPP-13. If no packets are shown the sender has not sent any weather packets the latest 10 day(s).
| Time | Temp. | Humidity | Pressure | Rain* | Wind** | Luminosity | Snow |
|---|---|---|---|---|---|---|---|
| 1777445419 | 9.44° C | 87% | 1030.1 hPa | 0 mm | - | 119 W/m² | - |
| 1777444819 | 9.44° C | 87% | 1030.1 hPa | 0 mm | - | 119 W/m² | - |
| 1777444219 | 11.11° C | 81% | 1030.1 hPa | 0 mm | - | 108 W/m² | - |
| 1777443619 | 10.56° C | 86% | 1030.1 hPa | 0 mm | - | 98 W/m² | - |
| 1777443019 | 10° C | 92% | 1030.1 hPa | 0 mm | - | 87 W/m² | - |
| 1777442419 | 8.33° C | 97% | 1030 hPa | 0 mm | - | 75 W/m² | - |
| 1777441819 | 7.22° C | 98% | 1030.2 hPa | 0 mm | - | 64 W/m² | - |
| 1777441219 | 6.67° C | 97% | 1030 hPa | 0 mm | - | 53 W/m² | - |
| 1777440619 | 6.11° C | 97% | 1030.1 hPa | 0 mm | - | 41 W/m² | - |
| 1777440019 | 5.56° C | 98% | 1030 hPa | 0 mm | - | 28 W/m² | - |
| 1777439419 | 5° C | 98% | 1030.2 hPa | 0 mm | - | 22 W/m² | - |
| 1777438819 | 3.89° C | 99% | 1030.1 hPa | 0 mm | - | 10 W/m² | - |
| 1777438219 | 3.89° C | 99% | 1030.1 hPa | 0 mm | - | 6 W/m² | - |
| 1777437019 | 3.89° C | 98% | 1030.3 hPa | 0 mm | - | 1 W/m² | - |
| 1777410019 | 7.22° C | 91% | 1030.5 hPa | 0 mm | - | 0 W/m² | - |
| 1777408219 | 7.22° C | 93% | 1030.4 hPa | 0 mm | - | 0 W/m² | - |
| 1777407619 | 7.78° C | 93% | 1030.2 hPa | 0 mm | - | 1 W/m² | - |
| 1777407019 | 7.78° C | 92% | 1030.2 hPa | 0 mm | - | 2 W/m² | - |
| 1777405819 | 7.78° C | 92% | 1030.3 hPa | 0 mm | - | 7 W/m² | - |
| 1777404619 | 8.33° C | 92% | 1030.4 hPa | 0 mm | - | 21 W/m² | - |
| 1777403419 | 8.89° C | 91% | 1030.3 hPa | 0 mm | - | 31 W/m² | - |
| 1777399819 | 9.44° C | 90% | 1030.3 hPa | 0 mm | - | 124 W/m² | - |
| 1777399219 | 10° C | 89% | 1030.3 hPa | 0 mm | - | 139 W/m² | - |
| 1777398619 | 10° C | 89% | 1030.3 hPa | 0 mm | - | 169 W/m² | - |
| 1777397419 | 10° C | 87% | 1030.1 hPa | 0 mm | - | 200 W/m² | - |
* Rain latest hour (hover to see other rain measurements)
** Current wind speed in m/s (hover to see current wind gust speed)